createdAt,value
2024-03-10T00:00:21.187Z,0.067
2024-03-10T00:02:15.979Z,0.067
2024-03-10T00:04:16.013Z,0.069
2024-03-10T00:06:15.882Z,0.068
2024-03-10T00:08:15.963Z,0.069
2024-03-10T00:10:16.242Z,0.071
2024-03-10T00:12:15.974Z,0.073
2024-03-10T00:14:15.898Z,0.073
2024-03-10T00:16:19.622Z,0.071
2024-03-10T00:18:15.941Z,0.070
2024-03-10T00:20:16.071Z,0.069
2024-03-10T00:22:16.224Z,0.069
2024-03-10T00:24:15.879Z,0.070
2024-03-10T00:26:16.049Z,0.071
2024-03-10T00:28:16.471Z,0.072
2024-03-10T00:30:18.720Z,0.074
2024-03-10T00:32:15.917Z,0.075
2024-03-10T00:34:15.934Z,0.076
2024-03-10T00:36:15.875Z,0.075
2024-03-10T00:38:19.141Z,0.075
2024-03-10T00:40:15.956Z,0.074
2024-03-10T00:42:16.009Z,0.075
2024-03-10T00:44:15.931Z,0.075
2024-03-10T00:46:15.924Z,0.075
2024-03-10T00:48:15.917Z,0.077
2024-03-10T00:50:16.074Z,0.077
2024-03-10T00:52:15.912Z,0.076
2024-03-10T00:54:16.863Z,0.077
2024-03-10T00:56:15.979Z,0.076
2024-03-10T00:58:16.018Z,0.077
2024-03-10T01:00:15.950Z,0.076
2024-03-10T01:02:15.950Z,0.077
2024-03-10T01:05:15.925Z,0.076
2024-03-10T01:07:15.917Z,0.074
2024-03-10T01:09:18.902Z,0.073
2024-03-10T01:11:21.769Z,0.071
2024-03-10T01:13:15.933Z,0.070
2024-03-10T01:15:15.882Z,0.070
2024-03-10T01:17:16.036Z,0.071
2024-03-10T01:19:16.048Z,0.072
2024-03-10T01:21:15.958Z,0.072
2024-03-10T01:23:16.035Z,0.070
2024-03-10T01:25:15.984Z,0.069
2024-03-10T01:27:16.018Z,0.068
2024-03-10T01:29:19.200Z,0.067
2024-03-10T01:31:21.539Z,0.064
2024-03-10T01:33:19.314Z,0.066
2024-03-10T01:35:15.990Z,0.066
2024-03-10T01:37:15.938Z,0.065
2024-03-10T01:39:16.270Z,0.067
2024-03-10T01:40:27.980Z,0.068
2024-03-10T01:43:15.965Z,0.066
2024-03-10T01:45:15.960Z,0.068
2024-03-10T01:47:15.993Z,0.064
2024-03-10T01:49:15.918Z,0.064
2024-03-10T01:51:15.988Z,0.065
2024-03-10T01:53:15.951Z,0.063
2024-03-10T01:55:15.989Z,0.064
2024-03-10T01:57:15.972Z,0.063
2024-03-10T01:59:15.947Z,0.064
2024-03-10T02:01:16.027Z,0.063
2024-03-10T02:03:15.911Z,0.065
2024-03-10T02:05:15.975Z,0.064
2024-03-10T02:07:16.718Z,0.067
2024-03-10T02:09:15.920Z,0.066
2024-03-10T02:11:18.907Z,0.067
2024-03-10T02:13:15.971Z,0.068
2024-03-10T02:15:18.929Z,0.068
2024-03-10T02:17:16.755Z,0.070
2024-03-10T02:19:15.957Z,0.070
2024-03-10T02:21:15.992Z,0.070
2024-03-10T02:23:15.951Z,0.072
2024-03-10T02:25:16.007Z,0.071
2024-03-10T02:27:16.208Z,0.074
2024-03-10T02:29:16.752Z,0.073
2024-03-10T02:31:16.020Z,0.073
2024-03-10T02:33:16.274Z,0.071
2024-03-10T02:35:16.181Z,0.073
2024-03-10T02:37:16.020Z,0.073
2024-03-10T02:39:16.142Z,0.072
2024-03-10T02:41:16.112Z,0.071
2024-03-10T02:43:15.963Z,0.072
2024-03-10T02:45:15.997Z,0.072
2024-03-10T02:47:16.063Z,0.073
2024-03-10T02:49:15.970Z,0.073
2024-03-10T02:51:15.967Z,0.074
2024-03-10T02:53:15.985Z,0.075
2024-03-10T02:55:16.041Z,0.076
2024-03-10T02:57:16.011Z,0.075
2024-03-10T02:59:16.142Z,0.077
2024-03-10T03:01:16.053Z,0.078
2024-03-10T03:03:16.002Z,0.076
2024-03-10T03:05:16.131Z,0.074
2024-03-10T03:07:16.054Z,0.073
2024-03-10T03:09:15.986Z,0.075
2024-03-10T03:11:16.048Z,0.076
2024-03-10T03:13:18.939Z,0.077
2024-03-10T03:15:16.048Z,0.078
2024-03-10T03:17:16.396Z,0.078
2024-03-10T03:19:16.005Z,0.077
2024-03-10T03:21:16.019Z,0.076
2024-03-10T03:23:16.087Z,0.076
2024-03-10T03:25:16.352Z,0.078
2024-03-10T03:27:16.054Z,0.078
2024-03-10T03:29:16.058Z,0.077
2024-03-10T03:31:15.995Z,0.076
2024-03-10T03:33:16.062Z,0.076
2024-03-10T03:35:16.227Z,0.075
2024-03-10T03:37:16.096Z,0.075
2024-03-10T03:39:16.043Z,0.078
2024-03-10T03:41:16.091Z,0.078
2024-03-10T03:43:16.040Z,0.078
2024-03-10T03:45:16.031Z,0.079
2024-03-10T03:47:16.090Z,0.078
2024-03-10T03:49:16.090Z,0.079
2024-03-10T03:51:15.991Z,0.077
2024-03-10T03:53:16.093Z,0.078
2024-03-10T03:55:16.016Z,0.077
2024-03-10T03:57:16.107Z,0.078
2024-03-10T03:59:16.138Z,0.078
2024-03-10T04:01:16.049Z,0.076
2024-03-10T04:03:16.028Z,0.076
2024-03-10T04:05:16.163Z,0.078
2024-03-10T04:07:16.142Z,0.080
2024-03-10T04:09:16.125Z,0.081
2024-03-10T04:11:16.119Z,0.079
2024-03-10T04:13:16.049Z,0.078
2024-03-10T04:15:19.146Z,0.077
2024-03-10T04:17:16.145Z,0.076
2024-03-10T04:19:16.008Z,0.077
2024-03-10T04:21:19.604Z,0.081
2024-03-10T04:23:16.160Z,0.080
2024-03-10T04:25:28.110Z,0.078
2024-03-10T04:27:16.068Z,0.077
2024-03-10T04:29:16.052Z,0.079
2024-03-10T04:31:16.079Z,0.081
2024-03-10T04:33:16.165Z,0.081
2024-03-10T04:35:16.195Z,0.081
2024-03-10T04:38:18.983Z,0.080
2024-03-10T04:40:24.914Z,0.078
2024-03-10T04:41:19.044Z,0.077
2024-03-10T04:43:22.060Z,0.076
2024-03-10T04:45:18.931Z,0.077
2024-03-10T04:48:21.933Z,0.079
2024-03-10T04:50:16.148Z,0.077
2024-03-10T04:52:16.482Z,0.078
2024-03-10T04:54:16.102Z,0.076
2024-03-10T04:56:16.245Z,0.078
2024-03-10T04:57:24.800Z,0.077
2024-03-10T05:00:22.170Z,0.074
2024-03-10T05:02:16.324Z,0.075
2024-03-10T05:04:16.106Z,0.073
2024-03-10T05:06:16.028Z,0.074
2024-03-10T05:08:16.199Z,0.072
2024-03-10T05:10:16.145Z,0.071
2024-03-10T05:13:34.736Z,0.071
2024-03-10T05:15:37.623Z,0.072
2024-03-10T05:17:34.760Z,0.072
2024-03-10T05:19:37.466Z,0.072
2024-03-10T05:21:37.329Z,0.070
2024-03-10T05:23:40.513Z,0.069
2024-03-10T05:25:40.516Z,0.072
2024-03-10T05:27:37.603Z,0.072
2024-03-10T05:29:37.559Z,0.070
2024-03-10T05:31:34.711Z,0.068
2024-03-10T05:33:34.756Z,0.068
2024-03-10T05:35:43.344Z,0.069
2024-03-10T05:37:34.683Z,0.070
2024-03-10T05:39:34.820Z,0.069
2024-03-10T05:41:40.464Z,0.069
2024-03-10T05:43:37.708Z,0.069
2024-03-10T05:46:49.773Z,0.068
2024-03-10T05:48:34.883Z,0.067
2024-03-10T05:50:35.847Z,0.069
2024-03-10T05:52:37.613Z,0.069
2024-03-10T05:54:37.560Z,0.071
2024-03-10T05:56:34.759Z,0.069
2024-03-10T05:57:43.674Z,0.069
2024-03-10T06:00:37.611Z,0.072
2024-03-10T06:02:41.025Z,0.071
2024-03-10T06:04:40.296Z,0.072
2024-03-10T06:06:34.743Z,0.073
2024-03-10T06:08:35.078Z,0.073
2024-03-10T06:10:37.328Z,0.074
2024-03-10T06:12:34.735Z,0.075
2024-03-10T06:14:37.888Z,0.075
2024-03-10T06:16:34.730Z,0.076
2024-03-10T06:18:34.742Z,0.076
2024-03-10T06:20:34.757Z,0.078
2024-03-10T06:22:34.712Z,0.080
2024-03-10T06:24:37.794Z,0.079
2024-03-10T06:26:34.861Z,0.078
2024-03-10T06:28:34.711Z,0.078
2024-03-10T06:30:34.706Z,0.078
2024-03-10T06:32:34.782Z,0.079
2024-03-10T06:34:34.773Z,0.079
2024-03-10T06:36:34.686Z,0.077
2024-03-10T06:38:40.759Z,0.077
2024-03-10T06:40:34.764Z,0.077
2024-03-10T06:42:34.807Z,0.079
2024-03-10T06:44:34.744Z,0.077
2024-03-10T06:46:34.874Z,0.078
2024-03-10T06:48:37.920Z,0.076
2024-03-10T06:50:37.452Z,0.074
2024-03-10T06:52:34.764Z,0.073
2024-03-10T06:54:34.728Z,0.071
2024-03-10T06:56:40.697Z,0.072
2024-03-10T06:58:34.912Z,0.073
2024-03-10T07:00:34.737Z,0.072
2024-03-10T07:02:34.804Z,0.071
2024-03-10T07:04:34.870Z,0.071
2024-03-10T07:06:34.747Z,0.069
2024-03-10T07:08:34.795Z,0.071
2024-03-10T07:10:34.743Z,0.069
2024-03-10T07:12:37.509Z,0.068
2024-03-10T07:14:34.768Z,0.067
2024-03-10T07:16:34.872Z,0.067
2024-03-10T07:18:34.877Z,0.066
2024-03-10T07:20:35.497Z,0.063
2024-03-10T07:22:34.802Z,0.061
2024-03-10T07:24:34.811Z,0.063
2024-03-10T07:26:34.854Z,0.065
2024-03-10T07:28:34.716Z,0.069
2024-03-10T07:30:34.735Z,0.069
2024-03-10T07:32:35.373Z,0.066
2024-03-10T07:34:34.806Z,0.069
2024-03-10T07:36:34.914Z,0.071
2024-03-10T07:38:34.777Z,0.069
2024-03-10T07:40:34.804Z,0.071
2024-03-10T07:42:34.721Z,0.071
2024-03-10T07:44:37.546Z,0.072
2024-03-10T07:46:34.789Z,0.070
2024-03-10T07:48:34.774Z,0.072
2024-03-10T07:50:40.201Z,0.073
2024-03-10T07:52:34.807Z,0.076
2024-03-10T07:54:34.890Z,0.077
2024-03-10T07:56:34.895Z,0.077
2024-03-10T07:58:34.844Z,0.077
2024-03-10T08:00:43.699Z,0.079
2024-03-10T08:02:37.797Z,0.080
2024-03-10T08:04:43.463Z,0.078
2024-03-10T08:06:38.209Z,0.082
2024-03-10T08:08:34.912Z,0.078
2024-03-10T08:10:43.694Z,0.079
2024-03-10T08:12:37.502Z,0.080
2024-03-10T08:14:37.755Z,0.079
2024-03-10T08:16:37.683Z,0.080
2024-03-10T08:18:41.692Z,0.078
2024-03-10T08:20:34.875Z,0.079
2024-03-10T08:22:37.640Z,0.080
2024-03-10T08:24:37.720Z,0.079
2024-03-10T08:26:43.036Z,0.076
2024-03-10T08:28:37.728Z,0.073
2024-03-10T08:30:37.911Z,0.073
2024-03-10T08:32:37.592Z,0.072
2024-03-10T08:34:37.294Z,0.073
2024-03-10T08:36:37.733Z,0.071
2024-03-10T08:38:37.519Z,0.072
2024-03-10T08:40:37.648Z,0.070
2024-03-10T08:42:40.897Z,0.070
2024-03-10T08:44:37.591Z,0.069
2024-03-10T08:46:39.588Z,0.070
2024-03-10T08:48:38.122Z,0.070
2024-03-10T08:50:35.124Z,0.067
2024-03-10T08:52:38.295Z,0.067
2024-03-10T08:54:34.853Z,0.068
2024-03-10T08:56:35.035Z,0.069
2024-03-10T08:58:34.848Z,0.069
2024-03-10T09:00:34.822Z,0.068
2024-03-10T09:02:34.943Z,0.069
2024-03-10T09:04:35.092Z,0.071
2024-03-10T09:06:35.059Z,0.068
2024-03-10T09:08:34.941Z,0.069
2024-03-10T09:10:44.302Z,0.071
2024-03-10T09:12:35.071Z,0.070
2024-03-10T09:14:34.993Z,0.072
2024-03-10T09:17:34.930Z,0.075
2024-03-10T09:19:35.299Z,0.075
2024-03-10T09:21:37.976Z,0.077
2024-03-10T09:23:37.945Z,0.078
2024-03-10T09:25:34.810Z,0.079
2024-03-10T09:27:34.833Z,0.081
2024-03-10T09:29:35.027Z,0.081
2024-03-10T09:31:34.895Z,0.083
2024-03-10T09:33:34.883Z,0.083
2024-03-10T09:35:35.177Z,0.084
2024-03-10T09:37:34.958Z,0.085
2024-03-10T09:39:35.344Z,0.086
2024-03-10T09:41:36.953Z,0.087
2024-03-10T09:43:35.398Z,0.086
2024-03-10T09:45:34.893Z,0.089
2024-03-10T09:47:34.995Z,0.089
2024-03-10T09:49:34.961Z,0.092
2024-03-10T09:51:34.905Z,0.092
2024-03-10T09:53:35.068Z,0.090
2024-03-10T09:55:35.102Z,0.090
2024-03-10T09:57:35.161Z,0.089
2024-03-10T09:59:35.495Z,0.088
2024-03-10T10:01:34.991Z,0.087
2024-03-10T10:03:35.020Z,0.087
2024-03-10T10:05:35.031Z,0.088
2024-03-10T10:07:34.873Z,0.090
2024-03-10T10:09:34.825Z,0.091
2024-03-10T10:11:34.954Z,0.091
2024-03-10T10:13:34.995Z,0.091
2024-03-10T10:15:34.931Z,0.091
2024-03-10T10:17:35.393Z,0.090
2024-03-10T10:19:35.044Z,0.091
2024-03-10T10:21:34.875Z,0.090
2024-03-10T10:23:35.078Z,0.090
2024-03-10T10:25:37.910Z,0.088
2024-03-10T10:27:34.986Z,0.089
2024-03-10T10:29:34.916Z,0.087
2024-03-10T10:31:35.020Z,0.088
2024-03-10T10:33:34.998Z,0.088
2024-03-10T10:35:35.044Z,0.086
2024-03-10T10:37:34.988Z,0.086
2024-03-10T10:39:35.413Z,0.085
2024-03-10T10:41:34.981Z,0.084
2024-03-10T10:43:35.154Z,0.085
2024-03-10T10:45:35.238Z,0.083
2024-03-10T10:47:35.919Z,0.081
2024-03-10T10:49:35.581Z,0.080
2024-03-10T10:51:35.628Z,0.080
2024-03-10T10:53:35.556Z,0.081
2024-03-10T10:55:35.602Z,0.078
2024-03-10T10:57:34.954Z,0.078
2024-03-10T10:59:35.121Z,0.078
2024-03-10T11:01:34.933Z,0.077
2024-03-10T11:03:35.082Z,0.078
2024-03-10T11:05:35.037Z,0.077
2024-03-10T11:07:34.899Z,0.076
2024-03-10T11:09:34.949Z,0.075
2024-03-10T11:11:35.079Z,0.076
2024-03-10T11:13:34.937Z,0.076
2024-03-10T11:15:34.964Z,0.078
2024-03-10T11:17:35.169Z,0.076
2024-03-10T11:19:34.915Z,0.076
2024-03-10T11:21:36.651Z,0.076
2024-03-10T11:23:35.200Z,0.077
2024-03-10T11:25:35.497Z,0.077
2024-03-10T11:27:38.031Z,0.076
2024-03-10T11:29:49.984Z,0.077
2024-03-10T11:31:50.103Z,0.077
2024-03-10T11:33:50.041Z,0.077
2024-03-10T11:35:50.185Z,0.076
2024-03-10T11:37:50.017Z,0.073
2024-03-10T11:39:50.243Z,0.075
2024-03-10T11:41:50.214Z,0.075
2024-03-10T11:43:50.814Z,0.076
2024-03-10T11:45:50.078Z,0.076
2024-03-10T11:47:50.649Z,0.079
2024-03-10T11:49:50.084Z,0.080
2024-03-10T11:51:50.085Z,0.084
2024-03-10T11:53:50.214Z,0.084
2024-03-10T11:55:50.120Z,0.086
2024-03-10T11:57:53.035Z,0.086
2024-03-10T11:59:49.986Z,0.087
2024-03-10T12:01:50.012Z,0.089
2024-03-10T12:03:49.974Z,0.088
2024-03-10T12:05:50.064Z,0.086
2024-03-10T12:07:50.086Z,0.085
2024-03-10T12:09:50.064Z,0.081
2024-03-10T12:11:50.078Z,0.080
2024-03-10T12:13:50.093Z,0.081
2024-03-10T12:15:50.160Z,0.078
2024-03-10T12:17:50.084Z,0.079
2024-03-10T12:19:50.061Z,0.077
2024-03-10T12:21:50.083Z,0.075
2024-03-10T12:23:50.306Z,0.072
2024-03-10T12:25:51.030Z,0.073
2024-03-10T12:27:50.625Z,0.072
2024-03-10T12:29:50.066Z,0.075
2024-03-10T12:31:53.185Z,0.075
2024-03-10T12:33:50.695Z,0.075
2024-03-10T12:35:50.793Z,0.075
2024-03-10T12:37:50.068Z,0.076
2024-03-10T12:39:50.040Z,0.076
2024-03-10T12:41:50.644Z,0.078
2024-03-10T12:43:50.083Z,0.076
2024-03-10T12:45:50.113Z,0.076
2024-03-10T12:47:50.245Z,0.074
2024-03-10T12:49:50.479Z,0.072
2024-03-10T12:52:00.004Z,0.069
2024-03-10T12:53:50.087Z,0.070
2024-03-10T12:55:50.036Z,0.068
2024-03-10T12:57:50.123Z,0.070
2024-03-10T12:59:53.033Z,0.069
2024-03-10T13:01:50.222Z,0.068
2024-03-10T13:03:50.067Z,0.068
2024-03-10T13:05:53.696Z,0.070
2024-03-10T13:07:50.103Z,0.073
2024-03-10T13:09:50.335Z,0.074
2024-03-10T13:11:50.190Z,0.075
2024-03-10T13:13:50.123Z,0.074
2024-03-10T13:15:50.044Z,0.075
2024-03-10T13:17:50.291Z,0.075
2024-03-10T13:19:50.077Z,0.078
2024-03-10T13:21:50.920Z,0.078
2024-03-10T13:23:50.083Z,0.080
2024-03-10T13:25:50.149Z,0.078
2024-03-10T13:27:52.975Z,0.079
2024-03-10T13:29:50.115Z,0.076
2024-03-10T13:31:51.758Z,0.075
2024-03-10T13:33:50.214Z,0.075
2024-03-10T13:37:50.107Z,0.076
2024-03-10T13:39:50.137Z,0.075
2024-03-10T13:41:50.083Z,0.073
2024-03-10T13:43:50.087Z,0.071
2024-03-10T13:45:50.233Z,0.071
2024-03-10T13:48:50.095Z,0.071
2024-03-10T13:50:50.196Z,0.072
2024-03-10T13:52:50.076Z,0.070
2024-03-10T13:54:50.227Z,0.070
2024-03-10T13:56:50.164Z,0.070
2024-03-10T13:58:50.108Z,0.073
2024-03-10T14:00:50.268Z,0.073
2024-03-10T14:02:50.410Z,0.074
2024-03-10T14:04:50.248Z,0.074
2024-03-10T14:06:50.099Z,0.073
2024-03-10T14:08:50.321Z,0.073
2024-03-10T14:10:52.650Z,0.072
2024-03-10T14:12:50.132Z,0.073
2024-03-10T14:14:50.175Z,0.069
2024-03-10T14:16:50.143Z,0.070
2024-03-10T14:18:50.191Z,0.068
2024-03-10T14:20:50.127Z,0.069
2024-03-10T14:22:50.613Z,0.069
2024-03-10T14:24:50.119Z,0.069
2024-03-10T14:26:50.184Z,0.070
2024-03-10T14:28:50.099Z,0.071
2024-03-10T14:30:50.127Z,0.071
2024-03-10T14:32:55.469Z,0.071
2024-03-10T14:34:50.297Z,0.072
2024-03-10T14:36:51.277Z,0.072
2024-03-10T14:38:50.198Z,0.072
2024-03-10T14:40:50.194Z,0.073
2024-03-10T14:42:50.135Z,0.075
2024-03-10T14:44:50.361Z,0.076
2024-03-10T14:46:50.156Z,0.076
2024-03-10T14:48:50.201Z,0.074
2024-03-10T14:50:50.173Z,0.074
2024-03-10T14:52:50.127Z,0.073
2024-03-10T14:54:50.863Z,0.073
2024-03-10T14:56:50.252Z,0.073
2024-03-10T14:58:50.327Z,0.071
2024-03-10T15:00:50.146Z,0.069
2024-03-10T15:02:50.324Z,0.068
2024-03-10T15:04:50.203Z,0.068
2024-03-10T15:06:50.130Z,0.069
2024-03-10T15:08:50.262Z,0.067
2024-03-10T15:10:50.210Z,0.067
2024-03-10T15:12:50.265Z,0.067
2024-03-10T15:14:50.142Z,0.070
2024-03-10T15:16:50.169Z,0.068
2024-03-10T15:18:52.045Z,0.071
2024-03-10T15:20:50.708Z,0.069
2024-03-10T15:22:50.906Z,0.071
2024-03-10T15:24:50.178Z,0.072
2024-03-10T15:26:50.233Z,0.071
2024-03-10T15:28:50.219Z,0.070
2024-03-10T15:30:50.240Z,0.071
2024-03-10T15:32:50.149Z,0.072
2024-03-10T15:34:53.332Z,0.072
2024-03-10T15:36:50.180Z,0.072
2024-03-10T15:38:50.230Z,0.072
2024-03-10T15:40:50.356Z,0.073
2024-03-10T15:42:50.250Z,0.074
2024-03-10T15:44:50.142Z,0.074
2024-03-10T15:46:54.300Z,0.075
2024-03-10T15:48:50.357Z,0.079
2024-03-10T15:50:50.223Z,0.080
2024-03-10T15:52:50.216Z,0.080
2024-03-10T15:54:50.215Z,0.080
2024-03-10T15:56:50.340Z,0.078
2024-03-10T16:00:50.223Z,0.080
2024-03-10T16:02:50.589Z,0.082
2024-03-10T16:04:50.194Z,0.081
2024-03-10T16:06:50.254Z,0.080
2024-03-10T16:08:50.213Z,0.083
2024-03-10T16:10:50.475Z,0.087
2024-03-10T16:12:50.180Z,0.087
2024-03-10T16:14:50.210Z,0.086
2024-03-10T16:16:51.944Z,0.087
2024-03-10T16:18:50.259Z,0.085
2024-03-10T16:20:50.451Z,0.085
2024-03-10T16:22:50.274Z,0.084
2024-03-10T16:24:50.239Z,0.085
2024-03-10T16:26:50.291Z,0.085
2024-03-10T16:28:50.152Z,0.085
2024-03-10T16:30:50.224Z,0.085
2024-03-10T16:32:50.296Z,0.084
2024-03-10T16:34:50.270Z,0.085
2024-03-10T16:36:50.410Z,0.084
2024-03-10T16:38:50.295Z,0.084
2024-03-10T16:40:50.188Z,0.082
2024-03-10T16:42:50.285Z,0.079
2024-03-10T16:44:50.229Z,0.079
2024-03-10T16:46:50.668Z,0.079
2024-03-10T16:48:50.201Z,0.077
2024-03-10T16:50:50.307Z,0.077
2024-03-10T16:52:50.234Z,0.076
2024-03-10T16:54:50.282Z,0.076
2024-03-10T16:56:50.228Z,0.077
2024-03-10T16:58:50.273Z,0.077
2024-03-10T17:00:50.875Z,0.077
2024-03-10T17:02:50.297Z,0.076
2024-03-10T17:04:50.237Z,0.075
2024-03-10T17:06:53.204Z,0.077
2024-03-10T17:08:50.316Z,0.074
2024-03-10T17:10:50.297Z,0.071
2024-03-10T17:12:50.660Z,0.072
2024-03-10T17:14:50.364Z,0.072
2024-03-10T17:16:50.296Z,0.072
2024-03-10T17:18:50.535Z,0.074
2024-03-10T17:20:50.817Z,0.075
2024-03-10T17:22:50.204Z,0.073
2024-03-10T17:24:50.394Z,0.072
2024-03-10T17:26:50.407Z,0.072
2024-03-10T17:29:50.298Z,0.071
2024-03-10T17:31:50.325Z,0.072
2024-03-10T17:33:50.398Z,0.069
2024-03-10T17:35:50.767Z,0.068
2024-03-10T17:39:11.514Z,0.069
2024-03-10T17:41:14.757Z,0.070
2024-03-10T17:43:08.556Z,0.070
2024-03-10T17:45:11.707Z,0.070
2024-03-10T17:47:13.612Z,0.069
2024-03-10T17:49:14.524Z,0.071
2024-03-10T17:51:17.544Z,0.072
2024-03-10T17:53:14.657Z,0.070
2024-03-10T17:55:11.670Z,0.071
2024-03-10T17:57:11.618Z,0.072
2024-03-10T17:59:08.432Z,0.069
2024-03-10T18:01:11.910Z,0.071
2024-03-10T18:03:17.761Z,0.070
2024-03-10T18:05:08.432Z,0.070
2024-03-10T18:07:20.745Z,0.066
2024-03-10T18:09:08.479Z,0.068
2024-03-10T18:11:20.110Z,0.067
2024-03-10T18:13:14.992Z,0.065
2024-03-10T18:15:11.921Z,0.063
2024-03-10T18:17:08.615Z,0.066
2024-03-10T18:19:11.538Z,0.065
2024-03-10T18:21:11.673Z,0.065
2024-03-10T18:23:08.685Z,0.067
2024-03-10T18:25:08.701Z,0.068
2024-03-10T18:27:11.918Z,0.068
2024-03-10T18:29:08.460Z,0.067
2024-03-10T18:31:08.571Z,0.067
2024-03-10T18:34:05.836Z,0.068
2024-03-10T18:35:13.455Z,0.071
2024-03-10T18:37:11.881Z,0.070
2024-03-10T18:40:18.272Z,0.069
2024-03-10T18:42:05.853Z,0.070
2024-03-10T18:44:06.162Z,0.069
2024-03-10T18:46:14.704Z,0.070
2024-03-10T18:48:08.727Z,0.069
2024-03-10T18:50:12.079Z,0.068
2024-03-10T18:52:06.060Z,0.068
2024-03-10T18:54:08.529Z,0.068
2024-03-10T18:56:07.584Z,0.068
2024-03-10T18:58:05.834Z,0.068
2024-03-10T19:00:05.820Z,0.069
2024-03-10T19:02:06.021Z,0.068
2024-03-10T19:04:05.750Z,0.070
2024-03-10T19:06:11.743Z,0.074
2024-03-10T19:08:05.871Z,0.074
2024-03-10T19:10:05.838Z,0.075
2024-03-10T19:12:06.166Z,0.076
2024-03-10T19:14:11.874Z,0.077
2024-03-10T19:16:05.797Z,0.076
2024-03-10T19:18:06.067Z,0.076
2024-03-10T19:20:14.667Z,0.078
2024-03-10T19:22:05.910Z,0.077
2024-03-10T19:24:05.946Z,0.076
2024-03-10T19:26:06.078Z,0.077
2024-03-10T19:28:06.524Z,0.079
2024-03-10T19:30:05.810Z,0.079
2024-03-10T19:32:05.919Z,0.079
2024-03-10T19:34:05.841Z,0.079
2024-03-10T19:36:05.852Z,0.078
2024-03-10T19:38:08.647Z,0.078
2024-03-10T19:40:17.598Z,0.076
2024-03-10T19:42:06.509Z,0.075
2024-03-10T19:44:06.250Z,0.079
2024-03-10T19:46:08.502Z,0.077
2024-03-10T19:48:05.916Z,0.077
2024-03-10T19:50:05.964Z,0.078
2024-03-10T19:52:14.557Z,0.080
2024-03-10T19:54:06.011Z,0.080
2024-03-10T19:56:05.972Z,0.078
2024-03-10T19:58:05.863Z,0.079
2024-03-10T20:00:06.446Z,0.080
2024-03-10T20:02:06.099Z,0.081
2024-03-10T20:04:06.113Z,0.081
2024-03-10T20:06:05.902Z,0.079
2024-03-10T20:08:10.590Z,0.080
2024-03-10T20:10:11.589Z,0.079
2024-03-10T20:12:06.128Z,0.079
2024-03-10T20:14:08.731Z,0.082
2024-03-10T20:16:09.245Z,0.083
2024-03-10T20:18:06.265Z,0.081
2024-03-10T20:20:15.331Z,0.082
2024-03-10T20:22:06.290Z,0.083
2024-03-10T20:24:05.975Z,0.084
2024-03-10T20:26:05.873Z,0.081
2024-03-10T20:28:05.949Z,0.082
2024-03-10T20:30:08.501Z,0.081
2024-03-10T20:32:05.991Z,0.082
2024-03-10T20:34:05.940Z,0.084
2024-03-10T20:36:05.897Z,0.080
2024-03-10T20:38:12.005Z,0.082
2024-03-10T20:40:06.085Z,0.084
2024-03-10T20:42:05.906Z,0.086
2024-03-10T20:44:05.929Z,0.087
2024-03-10T20:46:09.839Z,0.085
2024-03-10T20:48:06.253Z,0.085
2024-03-10T20:50:05.899Z,0.085
2024-03-10T20:52:05.872Z,0.084
2024-03-10T20:54:05.877Z,0.083
2024-03-10T20:56:06.038Z,0.085
2024-03-10T20:58:06.312Z,0.084
2024-03-10T21:00:08.786Z,0.084
2024-03-10T21:02:06.010Z,0.083
2024-03-10T21:04:06.298Z,0.080
2024-03-10T21:06:05.971Z,0.076
2024-03-10T21:08:06.133Z,0.076
2024-03-10T21:10:06.255Z,0.076
2024-03-10T21:12:06.264Z,0.075
2024-03-10T21:14:05.966Z,0.074
2024-03-10T21:16:05.936Z,0.074
2024-03-10T21:18:12.353Z,0.076
2024-03-10T21:20:08.953Z,0.074
2024-03-10T21:22:06.610Z,0.073
2024-03-10T21:24:17.638Z,0.076
2024-03-10T21:26:06.022Z,0.077
2024-03-10T21:28:08.469Z,0.078
2024-03-10T21:30:12.452Z,0.075
2024-03-10T21:32:07.124Z,0.073
2024-03-10T21:34:08.813Z,0.075
2024-03-10T21:36:05.873Z,0.075
2024-03-10T21:38:08.511Z,0.074
2024-03-10T21:40:14.493Z,0.072
2024-03-10T21:42:06.057Z,0.070
2024-03-10T21:44:05.920Z,0.069
2024-03-10T21:46:11.891Z,0.069
2024-03-10T21:48:05.970Z,0.067
2024-03-10T21:50:11.745Z,0.066
2024-03-10T21:52:05.931Z,0.069
2024-03-10T21:54:06.072Z,0.071
2024-03-10T21:56:06.005Z,0.073
2024-03-10T21:58:05.961Z,0.071
2024-03-10T22:01:05.876Z,0.071
2024-03-10T22:02:08.447Z,0.071
2024-03-10T22:05:05.927Z,0.072
2024-03-10T22:07:06.113Z,0.075
2024-03-10T22:09:09.004Z,0.074
2024-03-10T22:11:06.077Z,0.075
2024-03-10T22:13:05.905Z,0.074
2024-03-10T22:15:05.948Z,0.075
2024-03-10T22:17:05.992Z,0.074
2024-03-10T22:19:05.866Z,0.072
2024-03-10T22:21:06.016Z,0.072
2024-03-10T22:23:05.935Z,0.071
2024-03-10T22:25:05.871Z,0.070
2024-03-10T22:27:06.090Z,0.070
2024-03-10T22:29:07.379Z,0.071
2024-03-10T22:31:05.863Z,0.072
2024-03-10T22:33:05.921Z,0.073
2024-03-10T22:35:06.178Z,0.074
2024-03-10T22:37:05.909Z,0.075
2024-03-10T22:39:06.037Z,0.077
2024-03-10T22:41:06.129Z,0.078
2024-03-10T22:43:05.902Z,0.079
2024-03-10T22:45:21.052Z,0.078
2024-03-10T22:47:14.240Z,0.077
2024-03-10T22:49:05.918Z,0.078
2024-03-10T22:51:06.000Z,0.080
2024-03-10T22:53:05.949Z,0.077
2024-03-10T22:55:06.685Z,0.074
2024-03-10T22:57:06.109Z,0.076
2024-03-10T22:59:05.979Z,0.077
2024-03-10T23:01:06.058Z,0.077
2024-03-10T23:03:05.997Z,0.078
2024-03-10T23:05:12.119Z,0.079
2024-03-10T23:07:05.954Z,0.081
2024-03-10T23:09:06.008Z,0.079
2024-03-10T23:11:09.044Z,0.077
2024-03-10T23:13:05.900Z,0.078
2024-03-10T23:15:05.974Z,0.076
2024-03-10T23:17:05.939Z,0.076
2024-03-10T23:19:05.921Z,0.078
2024-03-10T23:21:09.004Z,0.077
2024-03-10T23:23:12.176Z,0.078
2024-03-10T23:25:05.930Z,0.078
2024-03-10T23:27:08.073Z,0.074
2024-03-10T23:29:05.948Z,0.073
2024-03-10T23:31:05.950Z,0.073
2024-03-10T23:33:06.189Z,0.070
2024-03-10T23:35:06.075Z,0.071
2024-03-10T23:37:05.967Z,0.070
2024-03-10T23:39:05.992Z,0.071
2024-03-10T23:41:09.682Z,0.070
2024-03-10T23:43:08.775Z,0.072
2024-03-10T23:45:06.025Z,0.075
2024-03-10T23:47:06.078Z,0.075
2024-03-10T23:49:05.932Z,0.073
2024-03-10T23:51:08.594Z,0.073
2024-03-10T23:53:05.995Z,0.072
2024-03-10T23:55:06.061Z,0.072
2024-03-10T23:57:07.313Z,0.072
